sensor_id;sensor_type;location;lat;lon;timestamp;temperature;humidity
21815;DHT22;11069;48.988;8.450;2022-08-19T00:01:39;20.70;99.90
21815;DHT22;11069;48.988;8.450;2022-08-19T00:04:08;20.60;99.90
21815;DHT22;11069;48.988;8.450;2022-08-19T00:06:36;20.60;99.90
21815;DHT22;11069;48.988;8.450;2022-08-19T00:09:04;20.60;99.90
21815;DHT22;11069;48.988;8.450;2022-08-19T00:11:31;20.60;99.90
21815;DHT22;11069;48.988;8.450;2022-08-19T00:13:56;20.60;99.90
21815;DHT22;11069;48.988;8.450;2022-08-19T00:16:23;20.60;99.90
21815;DHT22;11069;48.988;8.450;2022-08-19T00:18:50;20.60;99.90
21815;DHT22;11069;48.988;8.450;2022-08-19T00:21:15;20.60;99.90
21815;DHT22;11069;48.988;8.450;2022-08-19T00:23:42;20.60;99.90
21815;DHT22;11069;48.988;8.450;2022-08-19T00:26:09;20.60;99.90
21815;DHT22;11069;48.988;8.450;2022-08-19T00:28:35;20.60;99.90
21815;DHT22;11069;48.988;8.450;2022-08-19T00:31:02;20.60;99.90
21815;DHT22;11069;48.988;8.450;2022-08-19T00:33:29;20.60;99.90
21815;DHT22;11069;48.988;8.450;2022-08-19T00:36:02;20.70;99.90
21815;DHT22;11069;48.988;8.450;2022-08-19T00:38:30;20.70;99.90
21815;DHT22;11069;48.988;8.450;2022-08-19T00:40:56;20.70;99.90
21815;DHT22;11069;48.988;8.450;2022-08-19T00:43:24;20.70;99.90
21815;DHT22;11069;48.988;8.450;2022-08-19T00:45:50;20.80;99.90
21815;DHT22;11069;48.988;8.450;2022-08-19T00:48:18;20.70;99.90
21815;DHT22;11069;48.988;8.450;2022-08-19T00:50:44;20.80;99.90
21815;DHT22;11069;48.988;8.450;2022-08-19T00:53:15;20.80;99.90
21815;DHT22;11069;48.988;8.450;2022-08-19T00:55:45;20.80;99.90
21815;DHT22;11069;48.988;8.450;2022-08-19T00:58:14;20.70;99.90
21815;DHT22;11069;48.988;8.450;2022-08-19T01:00:40;20.60;99.90
21815;DHT22;11069;48.988;8.450;2022-08-19T01:03:09;20.70;99.90
21815;DHT22;11069;48.988;8.450;2022-08-19T01:05:35;20.60;99.90
21815;DHT22;11069;48.988;8.450;2022-08-19T01:08:04;20.70;99.90
21815;DHT22;11069;48.988;8.450;2022-08-19T01:10:33;20.70;99.90
21815;DHT22;11069;48.988;8.450;2022-08-19T01:13:01;20.70;99.90
21815;DHT22;11069;48.988;8.450;2022-08-19T01:15:32;20.70;99.90
21815;DHT22;11069;48.988;8.450;2022-08-19T01:18:02;20.70;99.90
21815;DHT22;11069;48.988;8.450;2022-08-19T01:20:29;20.70;99.90
21815;DHT22;11069;48.988;8.450;2022-08-19T01:22:57;20.70;99.90
21815;DHT22;11069;48.988;8.450;2022-08-19T01:25:35;20.70;99.90
21815;DHT22;11069;48.988;8.450;2022-08-19T01:28:03;20.70;99.90
21815;DHT22;11069;48.988;8.450;2022-08-19T01:30:33;20.60;99.90
21815;DHT22;11069;48.988;8.450;2022-08-19T01:32:59;20.60;99.90
21815;DHT22;11069;48.988;8.450;2022-08-19T01:35:28;20.60;99.90
21815;DHT22;11069;48.988;8.450;2022-08-19T01:38:00;20.60;99.90
21815;DHT22;11069;48.988;8.450;2022-08-19T01:40:31;20.50;99.90
21815;DHT22;11069;48.988;8.450;2022-08-19T01:42:56;20.50;99.90
21815;DHT22;11069;48.988;8.450;2022-08-19T01:45:24;20.50;99.90
21815;DHT22;11069;48.988;8.450;2022-08-19T01:47:51;20.60;99.90
21815;DHT22;11069;48.988;8.450;2022-08-19T01:50:16;20.60;99.90
21815;DHT22;11069;48.988;8.450;2022-08-19T01:52:44;20.70;99.90
21815;DHT22;11069;48.988;8.450;2022-08-19T01:55:16;20.70;99.90
21815;DHT22;11069;48.988;8.450;2022-08-19T01:57:45;20.70;99.90
21815;DHT22;11069;48.988;8.450;2022-08-19T02:00:13;20.70;99.90
21815;DHT22;11069;48.988;8.450;2022-08-19T02:02:41;20.60;99.90
21815;DHT22;11069;48.988;8.450;2022-08-19T02:05:07;20.50;99.90
21815;DHT22;11069;48.988;8.450;2022-08-19T02:07:36;20.40;99.90
21815;DHT22;11069;48.988;8.450;2022-08-19T02:10:06;20.50;99.90
21815;DHT22;11069;48.988;8.450;2022-08-19T02:12:32;20.50;99.90
21815;DHT22;11069;48.988;8.450;2022-08-19T02:14:59;20.50;99.90
21815;DHT22;11069;48.988;8.450;2022-08-19T02:17:26;20.60;99.90
21815;DHT22;11069;48.988;8.450;2022-08-19T02:19:54;20.50;99.90
21815;DHT22;11069;48.988;8.450;2022-08-19T02:22:20;20.50;99.90
21815;DHT22;11069;48.988;8.450;2022-08-19T02:24:46;20.50;99.90
21815;DHT22;11069;48.988;8.450;2022-08-19T02:27:13;20.40;99.90
21815;DHT22;11069;48.988;8.450;2022-08-19T02:29:39;20.40;99.90
21815;DHT22;11069;48.988;8.450;2022-08-19T02:32:05;20.40;99.90
21815;DHT22;11069;48.988;8.450;2022-08-19T02:34:30;20.30;99.90
21815;DHT22;11069;48.988;8.450;2022-08-19T02:36:56;20.30;99.90
21815;DHT22;11069;48.988;8.450;2022-08-19T02:39:22;20.30;99.90
21815;DHT22;11069;48.988;8.450;2022-08-19T02:41:47;20.30;99.90
21815;DHT22;11069;48.988;8.450;2022-08-19T02:44:15;20.30;99.90
21815;DHT22;11069;48.988;8.450;2022-08-19T02:46:40;20.20;99.90
21815;DHT22;11069;48.988;8.450;2022-08-19T02:49:07;20.30;99.90
21815;DHT22;11069;48.988;8.450;2022-08-19T02:51:40;20.30;99.90
21815;DHT22;11069;48.988;8.450;2022-08-19T02:54:07;20.40;99.90
21815;DHT22;11069;48.988;8.450;2022-08-19T02:56:38;20.30;99.90
21815;DHT22;11069;48.988;8.450;2022-08-19T02:59:05;20.20;99.90
21815;DHT22;11069;48.988;8.450;2022-08-19T03:01:34;20.20;99.90
21815;DHT22;11069;48.988;8.450;2022-08-19T03:04:02;20.20;99.90
21815;DHT22;11069;48.988;8.450;2022-08-19T03:06:29;20.20;99.90
21815;DHT22;11069;48.988;8.450;2022-08-19T03:08:55;20.20;99.90
21815;DHT22;11069;48.988;8.450;2022-08-19T03:11:22;20.20;99.90
21815;DHT22;11069;48.988;8.450;2022-08-19T03:13:48;20.20;99.90
21815;DHT22;11069;48.988;8.450;2022-08-19T03:16:16;20.30;99.90
21815;DHT22;11069;48.988;8.450;2022-08-19T03:18:42;20.20;99.90
21815;DHT22;11069;48.988;8.450;2022-08-19T03:21:09;20.30;99.90
21815;DHT22;11069;48.988;8.450;2022-08-19T03:23:35;20.30;99.90
21815;DHT22;11069;48.988;8.450;2022-08-19T03:26:04;20.20;99.90
21815;DHT22;11069;48.988;8.450;2022-08-19T03:28:30;20.20;99.90
21815;DHT22;11069;48.988;8.450;2022-08-19T03:31:03;20.10;99.90
21815;DHT22;11069;48.988;8.450;2022-08-19T03:33:30;20.10;99.90
21815;DHT22;11069;48.988;8.450;2022-08-19T03:36:00;20.00;99.90
21815;DHT22;11069;48.988;8.450;2022-08-19T03:38:26;20.00;99.90
21815;DHT22;11069;48.988;8.450;2022-08-19T03:40:52;20.00;99.90
21815;DHT22;11069;48.988;8.450;2022-08-19T03:43:17;20.00;99.90
21815;DHT22;11069;48.988;8.450;2022-08-19T03:45:43;20.00;99.90
21815;DHT22;11069;48.988;8.450;2022-08-19T03:48:09;20.00;99.90
21815;DHT22;11069;48.988;8.450;2022-08-19T03:50:39;20.00;99.90
21815;DHT22;11069;48.988;8.450;2022-08-19T03:53:04;19.90;99.90
21815;DHT22;11069;48.988;8.450;2022-08-19T03:55:30;19.90;99.90
21815;DHT22;11069;48.988;8.450;2022-08-19T03:57:55;19.90;99.90
21815;DHT22;11069;48.988;8.450;2022-08-19T04:00:21;19.90;99.90
21815;DHT22;11069;48.988;8.450;2022-08-19T04:02:47;19.90;99.90
21815;DHT22;11069;48.988;8.450;2022-08-19T04:05:13;19.90;99.90
21815;DHT22;11069;48.988;8.450;2022-08-19T04:07:39;19.80;99.90
21815;DHT22;11069;48.988;8.450;2022-08-19T04:10:05;19.80;99.90
21815;DHT22;11069;48.988;8.450;2022-08-19T04:12:31;19.80;99.90
21815;DHT22;11069;48.988;8.450;2022-08-19T04:14:57;19.80;99.90
21815;DHT22;11069;48.988;8.450;2022-08-19T04:17:23;19.80;99.90
21815;DHT22;11069;48.988;8.450;2022-08-19T04:19:49;19.80;99.90
21815;DHT22;11069;48.988;8.450;2022-08-19T04:22:15;19.70;99.90
21815;DHT22;11069;48.988;8.450;2022-08-19T04:24:41;19.80;99.90
21815;DHT22;11069;48.988;8.450;2022-08-19T04:27:06;19.90;99.90
21815;DHT22;11069;48.988;8.450;2022-08-19T04:29:33;19.80;99.90
21815;DHT22;11069;48.988;8.450;2022-08-19T04:31:59;19.90;99.90
21815;DHT22;11069;48.988;8.450;2022-08-19T04:34:27;19.90;99.90
21815;DHT22;11069;48.988;8.450;2022-08-19T04:36:54;19.80;99.90
21815;DHT22;11069;48.988;8.450;2022-08-19T04:39:30;19.80;99.90
21815;DHT22;11069;48.988;8.450;2022-08-19T04:42:16;19.70;99.90
21815;DHT22;11069;48.988;8.450;2022-08-19T04:45:02;19.70;99.90
21815;DHT22;11069;48.988;8.450;2022-08-19T04:47:29;19.60;99.90
21815;DHT22;11069;48.988;8.450;2022-08-19T04:49:56;19.70;99.90
21815;DHT22;11069;48.988;8.450;2022-08-19T04:52:22;19.70;99.90
21815;DHT22;11069;48.988;8.450;2022-08-19T04:54:48;19.70;99.90
21815;DHT22;11069;48.988;8.450;2022-08-19T04:57:14;19.80;99.90
21815;DHT22;11069;48.988;8.450;2022-08-19T04:59:40;19.90;99.90
21815;DHT22;11069;48.988;8.450;2022-08-19T05:02:08;19.90;99.90
21815;DHT22;11069;48.988;8.450;2022-08-19T05:04:34;19.90;99.90
21815;DHT22;11069;48.988;8.450;2022-08-19T05:07:00;19.90;99.90
21815;DHT22;11069;48.988;8.450;2022-08-19T05:09:26;19.90;99.90
21815;DHT22;11069;48.988;8.450;2022-08-19T05:11:52;20.00;99.90
21815;DHT22;11069;48.988;8.450;2022-08-19T05:14:18;20.00;99.90
21815;DHT22;11069;48.988;8.450;2022-08-19T05:16:46;20.00;99.90
21815;DHT22;11069;48.988;8.450;2022-08-19T05:19:12;20.00;99.90
21815;DHT22;11069;48.988;8.450;2022-08-19T05:21:56;20.00;99.90
21815;DHT22;11069;48.988;8.450;2022-08-19T05:24:40;20.10;99.90
21815;DHT22;11069;48.988;8.450;2022-08-19T05:27:05;20.10;99.90
21815;DHT22;11069;48.988;8.450;2022-08-19T05:29:32;20.10;99.90
21815;DHT22;11069;48.988;8.450;2022-08-19T05:31:59;20.30;99.90
21815;DHT22;11069;48.988;8.450;2022-08-19T05:34:26;20.40;99.90
21815;DHT22;11069;48.988;8.450;2022-08-19T05:36:54;20.50;99.90
21815;DHT22;11069;48.988;8.450;2022-08-19T05:39:24;20.60;99.90
21815;DHT22;11069;48.988;8.450;2022-08-19T05:42:03;20.60;99.90
21815;DHT22;11069;48.988;8.450;2022-08-19T05:47:32;20.60;99.90
21815;DHT22;11069;48.988;8.450;2022-08-19T05:49:58;20.70;99.90
21815;DHT22;11069;48.988;8.450;2022-08-19T05:52:24;20.80;99.90
21815;DHT22;11069;48.988;8.450;2022-08-19T05:54:50;20.80;99.90
21815;DHT22;11069;48.988;8.450;2022-08-19T05:57:17;20.90;99.90
21815;DHT22;11069;48.988;8.450;2022-08-19T05:59:42;20.80;99.90
21815;DHT22;11069;48.988;8.450;2022-08-19T06:02:11;20.70;99.90
21815;DHT22;11069;48.988;8.450;2022-08-19T06:04:36;20.70;99.90
21815;DHT22;11069;48.988;8.450;2022-08-19T06:07:03;20.70;99.90
21815;DHT22;11069;48.988;8.450;2022-08-19T06:09:30;20.70;99.90
21815;DHT22;11069;48.988;8.450;2022-08-19T06:11:58;20.80;99.90
21815;DHT22;11069;48.988;8.450;2022-08-19T06:14:27;20.80;99.90
21815;DHT22;11069;48.988;8.450;2022-08-19T06:16:53;20.90;99.90
21815;DHT22;11069;48.988;8.450;2022-08-19T06:19:20;21.00;99.90
21815;DHT22;11069;48.988;8.450;2022-08-19T06:21:48;21.00;99.90
21815;DHT22;11069;48.988;8.450;2022-08-19T06:24:18;21.10;99.90
21815;DHT22;11069;48.988;8.450;2022-08-19T06:26:46;21.10;99.90
21815;DHT22;11069;48.988;8.450;2022-08-19T06:29:13;21.20;99.90
21815;DHT22;11069;48.988;8.450;2022-08-19T06:31:43;21.20;99.90
21815;DHT22;11069;48.988;8.450;2022-08-19T06:34:10;21.30;99.90
21815;DHT22;11069;48.988;8.450;2022-08-19T06:36:40;21.20;99.90
21815;DHT22;11069;48.988;8.450;2022-08-19T06:39:14;21.20;99.90
21815;DHT22;11069;48.988;8.450;2022-08-19T06:41:43;21.20;99.90
21815;DHT22;11069;48.988;8.450;2022-08-19T06:44:09;21.20;99.90
21815;DHT22;11069;48.988;8.450;2022-08-19T06:46:36;21.30;99.90
21815;DHT22;11069;48.988;8.450;2022-08-19T06:49:01;21.30;99.90
21815;DHT22;11069;48.988;8.450;2022-08-19T06:51:27;21.40;99.90
21815;DHT22;11069;48.988;8.450;2022-08-19T06:53:54;21.60;99.90
21815;DHT22;11069;48.988;8.450;2022-08-19T06:56:24;21.70;99.90
21815;DHT22;11069;48.988;8.450;2022-08-19T06:58:51;21.80;99.90
21815;DHT22;11069;48.988;8.450;2022-08-19T07:01:19;21.90;99.90
21815;DHT22;11069;48.988;8.450;2022-08-19T07:03:45;22.00;99.90
21815;DHT22;11069;48.988;8.450;2022-08-19T07:06:13;22.20;99.90
21815;DHT22;11069;48.988;8.450;2022-08-19T07:08:44;22.30;99.90
21815;DHT22;11069;48.988;8.450;2022-08-19T07:11:16;22.40;99.90
21815;DHT22;11069;48.988;8.450;2022-08-19T07:13:43;22.50;99.90
21815;DHT22;11069;48.988;8.450;2022-08-19T07:16:13;22.50;99.90
21815;DHT22;11069;48.988;8.450;2022-08-19T07:18:39;22.60;99.90
21815;DHT22;11069;48.988;8.450;2022-08-19T07:21:14;22.60;99.90
21815;DHT22;11069;48.988;8.450;2022-08-19T07:23:41;22.70;99.90
21815;DHT22;11069;48.988;8.450;2022-08-19T07:26:26;22.80;99.90
21815;DHT22;11069;48.988;8.450;2022-08-19T07:28:52;22.80;99.90
21815;DHT22;11069;48.988;8.450;2022-08-19T07:31:22;22.80;99.90
21815;DHT22;11069;48.988;8.450;2022-08-19T07:33:50;22.60;99.90
21815;DHT22;11069;48.988;8.450;2022-08-19T07:36:28;22.60;99.90
21815;DHT22;11069;48.988;8.450;2022-08-19T07:38:59;22.80;99.90
21815;DHT22;11069;48.988;8.450;2022-08-19T07:41:27;22.80;99.90
21815;DHT22;11069;48.988;8.450;2022-08-19T07:43:54;22.90;99.90
21815;DHT22;11069;48.988;8.450;2022-08-19T07:46:20;22.80;99.90
21815;DHT22;11069;48.988;8.450;2022-08-19T07:48:48;22.80;99.90
21815;DHT22;11069;48.988;8.450;2022-08-19T07:51:18;22.90;99.90
21815;DHT22;11069;48.988;8.450;2022-08-19T07:53:44;22.90;99.90
21815;DHT22;11069;48.988;8.450;2022-08-19T07:56:13;23.00;99.90
21815;DHT22;11069;48.988;8.450;2022-08-19T07:58:41;22.90;99.90
21815;DHT22;11069;48.988;8.450;2022-08-19T08:01:10;23.10;99.90
21815;DHT22;11069;48.988;8.450;2022-08-19T08:03:37;23.20;99.90
21815;DHT22;11069;48.988;8.450;2022-08-19T08:06:21;23.20;99.90
21815;DHT22;11069;48.988;8.450;2022-08-19T08:09:06;23.20;99.90
21815;DHT22;11069;48.988;8.450;2022-08-19T08:11:44;23.20;99.90
21815;DHT22;11069;48.988;8.450;2022-08-19T08:14:16;23.20;99.90
21815;DHT22;11069;48.988;8.450;2022-08-19T08:16:41;23.30;99.90
21815;DHT22;11069;48.988;8.450;2022-08-19T08:19:09;23.50;99.90
21815;DHT22;11069;48.988;8.450;2022-08-19T08:21:35;23.70;99.90
21815;DHT22;11069;48.988;8.450;2022-08-19T08:24:01;23.90;99.90
21815;DHT22;11069;48.988;8.450;2022-08-19T08:26:27;24.30;99.90
21815;DHT22;11069;48.988;8.450;2022-08-19T08:28:53;24.50;99.90
21815;DHT22;11069;48.988;8.450;2022-08-19T08:31:19;24.80;99.90
21815;DHT22;11069;48.988;8.450;2022-08-19T08:33:46;24.80;99.90
21815;DHT22;11069;48.988;8.450;2022-08-19T08:36:12;24.40;99.90
21815;DHT22;11069;48.988;8.450;2022-08-19T08:38:40;24.10;99.90
21815;DHT22;11069;48.988;8.450;2022-08-19T08:41:21;24.20;99.90
21815;DHT22;11069;48.988;8.450;2022-08-19T08:43:51;24.30;99.90
21815;DHT22;11069;48.988;8.450;2022-08-19T08:46:39;24.30;99.90
21815;DHT22;11069;48.988;8.450;2022-08-19T08:52:06;24.50;99.90
21815;DHT22;11069;48.988;8.450;2022-08-19T08:54:43;24.40;99.90
21815;DHT22;11069;48.988;8.450;2022-08-19T08:59:50;25.00;99.90
21815;DHT22;11069;48.988;8.450;2022-08-19T09:02:19;24.90;99.90
21815;DHT22;11069;48.988;8.450;2022-08-19T09:04:45;24.90;99.90
21815;DHT22;11069;48.988;8.450;2022-08-19T09:10:01;24.80;99.90
21815;DHT22;11069;48.988;8.450;2022-08-19T09:15:08;25.00;99.90
21815;DHT22;11069;48.988;8.450;2022-08-19T09:17:35;24.90;99.90
21815;DHT22;11069;48.988;8.450;2022-08-19T09:20:08;24.90;99.90
21815;DHT22;11069;48.988;8.450;2022-08-19T09:22:41;25.10;99.90
21815;DHT22;11069;48.988;8.450;2022-08-19T09:25:11;25.20;99.90
21815;DHT22;11069;48.988;8.450;2022-08-19T09:27:39;25.30;99.90
21815;DHT22;11069;48.988;8.450;2022-08-19T09:30:06;25.60;99.90
21815;DHT22;11069;48.988;8.450;2022-08-19T09:32:33;26.00;98.90
21815;DHT22;11069;48.988;8.450;2022-08-19T09:34:59;26.00;98.20
21815;DHT22;11069;48.988;8.450;2022-08-19T09:37:25;26.10;98.50
21815;DHT22;11069;48.988;8.450;2022-08-19T09:39:51;26.00;99.00
21815;DHT22;11069;48.988;8.450;2022-08-19T09:42:18;25.60;99.20
21815;DHT22;11069;48.988;8.450;2022-08-19T09:44:44;25.80;98.70
21815;DHT22;11069;48.988;8.450;2022-08-19T09:47:11;25.80;98.50
21815;DHT22;11069;48.988;8.450;2022-08-19T09:49:40;25.90;98.00
21815;DHT22;11069;48.988;8.450;2022-08-19T09:52:08;26.30;98.30
21815;DHT22;11069;48.988;8.450;2022-08-19T09:54:34;26.50;97.90
21815;DHT22;11069;48.988;8.450;2022-08-19T09:57:00;27.10;97.10
21815;DHT22;11069;48.988;8.450;2022-08-19T09:59:26;27.00;96.30
21815;DHT22;11069;48.988;8.450;2022-08-19T10:01:52;26.70;96.80
21815;DHT22;11069;48.988;8.450;2022-08-19T10:04:17;26.60;95.30
21815;DHT22;11069;48.988;8.450;2022-08-19T10:06:43;27.10;95.50
21815;DHT22;11069;48.988;8.450;2022-08-19T10:09:10;27.80;94.20
21815;DHT22;11069;48.988;8.450;2022-08-19T10:11:38;27.40;92.50
21815;DHT22;11069;48.988;8.450;2022-08-19T10:14:04;26.70;94.20
21815;DHT22;11069;48.988;8.450;2022-08-19T10:16:34;26.60;95.10
21815;DHT22;11069;48.988;8.450;2022-08-19T10:19:01;26.90;94.90
21815;DHT22;11069;48.988;8.450;2022-08-19T10:21:29;27.00;95.00
21815;DHT22;11069;48.988;8.450;2022-08-19T10:23:58;27.10;94.00
21815;DHT22;11069;48.988;8.450;2022-08-19T10:26:28;27.20;94.50
21815;DHT22;11069;48.988;8.450;2022-08-19T10:28:54;27.40;95.20
21815;DHT22;11069;48.988;8.450;2022-08-19T10:31:28;27.30;93.50
21815;DHT22;11069;48.988;8.450;2022-08-19T10:33:55;26.90;92.80
21815;DHT22;11069;48.988;8.450;2022-08-19T10:36:31;27.10;93.30
21815;DHT22;11069;48.988;8.450;2022-08-19T10:38:59;26.70;93.30
21815;DHT22;11069;48.988;8.450;2022-08-19T10:41:29;26.60;93.90
21815;DHT22;11069;48.988;8.450;2022-08-19T10:43:57;27.20;93.40
21815;DHT22;11069;48.988;8.450;2022-08-19T10:46:25;28.00;93.80
21815;DHT22;11069;48.988;8.450;2022-08-19T10:48:52;28.50;91.90
21815;DHT22;11069;48.988;8.450;2022-08-19T10:51:18;28.90;90.50
21815;DHT22;11069;48.988;8.450;2022-08-19T10:54:03;28.70;90.70
21815;DHT22;11069;48.988;8.450;2022-08-19T10:56:29;28.10;91.50
21815;DHT22;11069;48.988;8.450;2022-08-19T10:59:14;27.60;92.60
21815;DHT22;11069;48.988;8.450;2022-08-19T11:01:42;27.10;92.70
21815;DHT22;11069;48.988;8.450;2022-08-19T11:04:08;27.10;91.30
21815;DHT22;11069;48.988;8.450;2022-08-19T11:06:41;27.40;92.40
21815;DHT22;11069;48.988;8.450;2022-08-19T11:09:08;27.00;91.50
21815;DHT22;11069;48.988;8.450;2022-08-19T11:11:35;27.10;92.20
21815;DHT22;11069;48.988;8.450;2022-08-19T11:14:11;27.60;92.20
21815;DHT22;11069;48.988;8.450;2022-08-19T11:16:37;27.60;91.80
21815;DHT22;11069;48.988;8.450;2022-08-19T11:19:05;27.50;92.60
21815;DHT22;11069;48.988;8.450;2022-08-19T11:21:35;27.20;90.90
21815;DHT22;11069;48.988;8.450;2022-08-19T11:24:04;27.10;92.30
21815;DHT22;11069;48.988;8.450;2022-08-19T11:26:31;27.80;91.10
21815;DHT22;11069;48.988;8.450;2022-08-19T11:28:58;28.00;90.80
21815;DHT22;11069;48.988;8.450;2022-08-19T11:31:30;27.30;90.50
21815;DHT22;11069;48.988;8.450;2022-08-19T11:33:58;27.80;91.50
21815;DHT22;11069;48.988;8.450;2022-08-19T11:36:26;28.80;90.70
21815;DHT22;11069;48.988;8.450;2022-08-19T11:38:52;29.30;90.20
21815;DHT22;11069;48.988;8.450;2022-08-19T11:41:21;29.20;88.80
21815;DHT22;11069;48.988;8.450;2022-08-19T11:43:49;28.80;87.40
21815;DHT22;11069;48.988;8.450;2022-08-19T11:46:15;28.50;87.80
21815;DHT22;11069;48.988;8.450;2022-08-19T11:48:42;27.90;90.30
21815;DHT22;11069;48.988;8.450;2022-08-19T11:51:10;27.90;90.00
21815;DHT22;11069;48.988;8.450;2022-08-19T11:53:37;28.10;90.70
21815;DHT22;11069;48.988;8.450;2022-08-19T11:56:04;29.00;90.40
21815;DHT22;11069;48.988;8.450;2022-08-19T11:58:30;29.40;85.50
21815;DHT22;11069;48.988;8.450;2022-08-19T12:00:56;29.10;85.20
21815;DHT22;11069;48.988;8.450;2022-08-19T12:03:22;28.30;88.50
21815;DHT22;11069;48.988;8.450;2022-08-19T12:05:48;28.00;90.10
21815;DHT22;11069;48.988;8.450;2022-08-19T12:08:15;27.50;90.20
21815;DHT22;11069;48.988;8.450;2022-08-19T12:10:42;27.70;90.80
21815;DHT22;11069;48.988;8.450;2022-08-19T12:13:09;27.50;90.40
21815;DHT22;11069;48.988;8.450;2022-08-19T12:15:36;27.90;90.80
21815;DHT22;11069;48.988;8.450;2022-08-19T12:18:02;28.20;91.00
21815;DHT22;11069;48.988;8.450;2022-08-19T12:20:28;27.80;88.70
21815;DHT22;11069;48.988;8.450;2022-08-19T12:22:54;27.50;90.10
21815;DHT22;11069;48.988;8.450;2022-08-19T12:25:20;27.30;89.80
21815;DHT22;11069;48.988;8.450;2022-08-19T12:27:46;26.90;90.50
21815;DHT22;11069;48.988;8.450;2022-08-19T12:30:13;26.60;90.50
21815;DHT22;11069;48.988;8.450;2022-08-19T12:32:40;26.50;90.60
21815;DHT22;11069;48.988;8.450;2022-08-19T12:35:06;26.40;90.90
21815;DHT22;11069;48.988;8.450;2022-08-19T12:37:32;26.20;91.40
21815;DHT22;11069;48.988;8.450;2022-08-19T12:39:58;26.10;91.60
21815;DHT22;11069;48.988;8.450;2022-08-19T12:42:24;26.20;91.70
21815;DHT22;11069;48.988;8.450;2022-08-19T12:44:50;26.40;92.10
21815;DHT22;11069;48.988;8.450;2022-08-19T12:47:17;26.40;91.10
21815;DHT22;11069;48.988;8.450;2022-08-19T12:49:43;26.60;90.90
21815;DHT22;11069;48.988;8.450;2022-08-19T12:52:10;26.70;91.10
21815;DHT22;11069;48.988;8.450;2022-08-19T12:54:37;26.80;91.00
21815;DHT22;11069;48.988;8.450;2022-08-19T12:57:07;27.00;90.70
21815;DHT22;11069;48.988;8.450;2022-08-19T12:59:34;27.20;90.90
21815;DHT22;11069;48.988;8.450;2022-08-19T13:02:05;27.40;90.20
21815;DHT22;11069;48.988;8.450;2022-08-19T13:04:32;27.80;88.60
21815;DHT22;11069;48.988;8.450;2022-08-19T13:07:00;28.30;90.40
21815;DHT22;11069;48.988;8.450;2022-08-19T13:09:26;29.20;86.60
21815;DHT22;11069;48.988;8.450;2022-08-19T13:11:51;30.70;80.80
21815;DHT22;11069;48.988;8.450;2022-08-19T13:14:17;31.80;76.20
21815;DHT22;11069;48.988;8.450;2022-08-19T13:16:44;32.60;74.50
21815;DHT22;11069;48.988;8.450;2022-08-19T13:19:09;33.40;73.10
21815;DHT22;11069;48.988;8.450;2022-08-19T13:21:36;32.80;73.10
21815;DHT22;11069;48.988;8.450;2022-08-19T13:24:02;32.40;70.90
21815;DHT22;11069;48.988;8.450;2022-08-19T13:26:27;33.30;71.30
21815;DHT22;11069;48.988;8.450;2022-08-19T13:28:53;31.50;70.90
21815;DHT22;11069;48.988;8.450;2022-08-19T13:31:40;30.50;72.80
21815;DHT22;11069;48.988;8.450;2022-08-19T13:34:31;29.40;75.90
21815;DHT22;11069;48.988;8.450;2022-08-19T13:36:59;29.20;76.50
21815;DHT22;11069;48.988;8.450;2022-08-19T13:39:24;29.00;74.80
21815;DHT22;11069;48.988;8.450;2022-08-19T13:41:50;28.60;76.40
21815;DHT22;11069;48.988;8.450;2022-08-19T13:44:17;28.20;77.60
21815;DHT22;11069;48.988;8.450;2022-08-19T13:46:47;28.40;77.90
21815;DHT22;11069;48.988;8.450;2022-08-19T13:49:14;29.10;74.60
21815;DHT22;11069;48.988;8.450;2022-08-19T13:51:41;29.70;73.60
21815;DHT22;11069;48.988;8.450;2022-08-19T13:54:08;30.60;71.60
21815;DHT22;11069;48.988;8.450;2022-08-19T13:56:35;31.30;69.50
21815;DHT22;11069;48.988;8.450;2022-08-19T13:59:01;31.70;68.20
21815;DHT22;11069;48.988;8.450;2022-08-19T14:01:27;31.70;65.50
21815;DHT22;11069;48.988;8.450;2022-08-19T14:03:53;33.10;63.40
21815;DHT22;11069;48.988;8.450;2022-08-19T14:06:19;33.60;60.70
21815;DHT22;11069;48.988;8.450;2022-08-19T14:08:45;33.30;59.90
21815;DHT22;11069;48.988;8.450;2022-08-19T14:11:11;33.00;60.50
21815;DHT22;11069;48.988;8.450;2022-08-19T14:13:37;33.00;59.10
21815;DHT22;11069;48.988;8.450;2022-08-19T14:16:08;32.10;61.40
21815;DHT22;11069;48.988;8.450;2022-08-19T14:18:34;31.60;60.70
21815;DHT22;11069;48.988;8.450;2022-08-19T14:21:00;31.30;62.40
21815;DHT22;11069;48.988;8.450;2022-08-19T14:23:25;30.80;62.90
21815;DHT22;11069;48.988;8.450;2022-08-19T14:25:51;30.40;64.40
21815;DHT22;11069;48.988;8.450;2022-08-19T14:28:17;29.70;66.80
21815;DHT22;11069;48.988;8.450;2022-08-19T14:30:42;29.50;66.50
21815;DHT22;11069;48.988;8.450;2022-08-19T14:33:10;29.40;68.70
21815;DHT22;11069;48.988;8.450;2022-08-19T14:35:36;29.50;69.10
21815;DHT22;11069;48.988;8.450;2022-08-19T14:38:04;29.50;68.90
21815;DHT22;11069;48.988;8.450;2022-08-19T14:40:30;29.80;70.10
21815;DHT22;11069;48.988;8.450;2022-08-19T14:42:59;29.90;68.00
21815;DHT22;11069;48.988;8.450;2022-08-19T14:45:34;30.10;67.70
21815;DHT22;11069;48.988;8.450;2022-08-19T14:48:00;30.60;69.10
21815;DHT22;11069;48.988;8.450;2022-08-19T14:50:26;30.40;65.00
21815;DHT22;11069;48.988;8.450;2022-08-19T14:52:59;30.30;65.80
21815;DHT22;11069;48.988;8.450;2022-08-19T14:55:25;30.70;64.50
21815;DHT22;11069;48.988;8.450;2022-08-19T14:57:51;31.10;66.00
21815;DHT22;11069;48.988;8.450;2022-08-19T15:00:16;30.70;68.20
21815;DHT22;11069;48.988;8.450;2022-08-19T15:02:42;30.00;63.80
21815;DHT22;11069;48.988;8.450;2022-08-19T15:05:11;29.60;67.80
21815;DHT22;11069;48.988;8.450;2022-08-19T15:07:38;29.10;68.30
21815;DHT22;11069;48.988;8.450;2022-08-19T15:10:05;28.80;71.80
21815;DHT22;11069;48.988;8.450;2022-08-19T15:12:34;28.30;70.40
21815;DHT22;11069;48.988;8.450;2022-08-19T15:15:00;28.10;70.90
21815;DHT22;11069;48.988;8.450;2022-08-19T15:17:26;27.90;73.00
21815;DHT22;11069;48.988;8.450;2022-08-19T15:19:52;27.70;73.10
21815;DHT22;11069;48.988;8.450;2022-08-19T15:22:18;27.50;74.30
21815;DHT22;11069;48.988;8.450;2022-08-19T15:24:44;27.40;77.10
21815;DHT22;11069;48.988;8.450;2022-08-19T15:27:12;27.20;78.40
21815;DHT22;11069;48.988;8.450;2022-08-19T15:29:38;27.00;76.80
21815;DHT22;11069;48.988;8.450;2022-08-19T15:32:06;27.00;78.50
21815;DHT22;11069;48.988;8.450;2022-08-19T15:34:33;26.80;78.90
21815;DHT22;11069;48.988;8.450;2022-08-19T15:36:59;26.70;81.40
21815;DHT22;11069;48.988;8.450;2022-08-19T15:39:25;26.50;79.50
21815;DHT22;11069;48.988;8.450;2022-08-19T15:42:53;26.40;79.90
21815;DHT22;11069;48.988;8.450;2022-08-19T15:45:21;26.50;78.40
21815;DHT22;11069;48.988;8.450;2022-08-19T15:47:46;26.60;78.90
21815;DHT22;11069;48.988;8.450;2022-08-19T15:50:15;26.70;78.70